Deming Municipal Airport Deming US
ICAO: KDMN
IATA: DMN
Category: Medium
Scheduled Services: No

Elevation: 4314 ft
TransAlt. 18000 ft.

Airport Communications:
ASOS:118.525
ALBUQUERQUE CNTR:128.2
ALBUQUERQUE RDO:122.2
CTAF/UNICOM:122.8

KDMN Zoom In..

Runways:

(A) RW 04 length 5675 ft width 60 ft
---- / hdg 42

(B) RW 08 length 8018 ft width 75 ft
---- / hdg 80

(C) RW 22 length 5675 ft width 60 ft
---- / hdg 222

(D) RW 26 length 8018 ft width 75 ft
---- / hdg 260

Location; KDMN
Day. 26 / Time. 12.53 Zulu
* Altimeter: 29.99
* Temperature: 17° c. 62.6°f.
* Wind from: 240° Speed 03 kn.
Dewpoint: -07° c.
Visibility: 10 Statute Miles.
Clouds: Clear (automated report).

KDMN 261253Z AUTO 24003KT 10SM CLR 17/M07 A2999 RMK AO2 SLP076 T01721072


Wind From 240°
Speed 03 kn.

 
 
jpsmedia.com for Web Design SOUNDCLOUD worldairports.se 2018   terms of use